DAFH

Hassi R'Mel Airport

Algeria
TAF DAFH 210800Z 2109/2118 14010KT CAVOK
Issued Valid From Valid To
Apr-21 @ 08:00 UTC
(2 hours ago)
Apr-21 @ 09:00 UTC
(35 minutes ago)
Apr-21 @ 18:00 UTC
(in 8 hours)
Apr-21 @ 09:00 to Apr-21 @ 18:00
TAF DAFH 210800Z 2109/2118 14010KT CAVOK
Wind Visibility Clouds Conditions
140° at 10 knots 10,000+ meters
  • No significant clouds
TAF DAFH 210800Z 2109/2118 14010KT CAVOK
Issued Apr-21 @ 08:00 UTC
(2 hours ago)
Valid From Apr-21 @ 09:00 UTC
(35 minutes ago)
Valid To Apr-21 @ 18:00 UTC
(in 8 hours)
Apr-21 @ 09:00 - Apr-21 @ 18:00
Wind Visibility
140° at 10 knots 10,000+ meters
Clouds
  • No significant clouds
Conditions